sensor_id;sensor_type;location;lat;lon;timestamp;pressure;altitude;pressure_sealevel;temperature;humidity
76126;BME280;65174;48.138;21.002;2023-02-26T00:00:18;98040.06;;;3.32;66.36
76126;BME280;65174;48.138;21.002;2023-02-26T00:03:22;98046.31;;;3.12;67.12
76126;BME280;65174;48.138;21.002;2023-02-26T00:06:25;98034.13;;;3.17;67.46
76126;BME280;65174;48.138;21.002;2023-02-26T00:09:28;98029.13;;;3.15;67.04
76126;BME280;65174;48.138;21.002;2023-02-26T00:12:30;98019.81;;;3.14;66.32
76126;BME280;65174;48.138;21.002;2023-02-26T00:15:33;98036.13;;;3.12;66.82
76126;BME280;65174;48.138;21.002;2023-02-26T00:18:35;98037.75;;;3.13;67.70
76126;BME280;65174;48.138;21.002;2023-02-26T00:21:37;98058.00;;;3.30;67.58
76126;BME280;65174;48.138;21.002;2023-02-26T00:24:39;98079.69;;;3.07;67.07
76126;BME280;65174;48.138;21.002;2023-02-26T00:27:43;98069.84;;;2.86;68.50
76126;BME280;65174;48.138;21.002;2023-02-26T00:30:45;98083.47;;;3.00;68.49
76126;BME280;65174;48.138;21.002;2023-02-26T00:33:47;98078.38;;;3.00;69.37
76126;BME280;65174;48.138;21.002;2023-02-26T00:40:13;98071.47;;;3.02;69.24
76126;BME280;65174;48.138;21.002;2023-02-26T00:43:22;98102.75;;;3.20;67.74
76126;BME280;65174;48.138;21.002;2023-02-26T00:46:35;98066.56;;;2.68;70.05
76126;BME280;65174;48.138;21.002;2023-02-26T00:55:58;98063.38;;;2.65;70.01
76126;BME280;65174;48.138;21.002;2023-02-26T00:58:59;98078.56;;;2.82;69.30
76126;BME280;65174;48.138;21.002;2023-02-26T01:02:02;98096.09;;;3.02;68.99
76126;BME280;65174;48.138;21.002;2023-02-26T01:05:05;98103.41;;;3.08;69.00
76126;BME280;65174;48.138;21.002;2023-02-26T01:11:09;98087.19;;;2.79;70.85
76126;BME280;65174;48.138;21.002;2023-02-26T01:14:12;98106.63;;;2.96;68.65
76126;BME280;65174;48.138;21.002;2023-02-26T01:20:24;98079.69;;;3.07;68.27
76126;BME280;65174;48.138;21.002;2023-02-26T01:23:31;98050.81;;;3.22;67.22
76126;BME280;65174;48.138;21.002;2023-02-26T01:26:35;98050.50;;;3.13;69.35
76126;BME280;65174;48.138;21.002;2023-02-26T01:29:37;98051.81;;;3.04;69.24
76126;BME280;65174;48.138;21.002;2023-02-26T01:33:00;98077.00;;;2.95;69.40
76126;BME280;65174;48.138;21.002;2023-02-26T01:36:08;98072.19;;;3.04;68.32
76126;BME280;65174;48.138;21.002;2023-02-26T01:39:38;98067.97;;;3.19;68.66
76126;BME280;65174;48.138;21.002;2023-02-26T01:42:43;98077.28;;;3.04;68.76
76126;BME280;65174;48.138;21.002;2023-02-26T01:46:04;98063.69;;;2.90;69.18
76126;BME280;65174;48.138;21.002;2023-02-26T01:49:13;98063.34;;;2.96;70.01
76126;BME280;65174;48.138;21.002;2023-02-26T01:55:34;98075.38;;;3.23;68.26
76126;BME280;65174;48.138;21.002;2023-02-26T01:58:37;98082.63;;;3.15;67.58
76126;BME280;65174;48.138;21.002;2023-02-26T02:01:39;98091.28;;;3.27;67.81
76126;BME280;65174;48.138;21.002;2023-02-26T02:04:41;98105.50;;;3.31;68.98
76126;BME280;65174;48.138;21.002;2023-02-26T02:07:45;98115.75;;;3.15;68.87
76126;BME280;65174;48.138;21.002;2023-02-26T02:10:49;98125.91;;;3.31;68.91
76126;BME280;65174;48.138;21.002;2023-02-26T02:17:24;98133.38;;;2.89;70.55
76126;BME280;65174;48.138;21.002;2023-02-26T02:20:38;98128.50;;;2.69;71.77
76126;BME280;65174;48.138;21.002;2023-02-26T02:34:21;98116.25;;;3.06;68.75
76126;BME280;65174;48.138;21.002;2023-02-26T02:37:30;98125.78;;;3.03;70.83
76126;BME280;65174;48.138;21.002;2023-02-26T02:40:36;98120.78;;;3.01;70.25
76126;BME280;65174;48.138;21.002;2023-02-26T02:43:41;98126.56;;;3.19;69.79
76126;BME280;65174;48.138;21.002;2023-02-26T02:46:46;98128.72;;;3.11;69.84
76126;BME280;65174;48.138;21.002;2023-02-26T02:53:13;98151.97;;;3.36;68.45
76126;BME280;65174;48.138;21.002;2023-02-26T02:56:22;98154.53;;;3.20;68.74
76126;BME280;65174;48.138;21.002;2023-02-26T02:59:37;98159.75;;;3.33;68.04
76126;BME280;65174;48.138;21.002;2023-02-26T03:02:56;98144.03;;;3.11;69.13
76126;BME280;65174;48.138;21.002;2023-02-26T03:06:00;98137.94;;;2.98;70.01
76126;BME280;65174;48.138;21.002;2023-02-26T03:09:04;98143.28;;;3.09;70.70
76126;BME280;65174;48.138;21.002;2023-02-26T03:12:06;98135.47;;;2.96;69.52
76126;BME280;65174;48.138;21.002;2023-02-26T03:15:09;98134.75;;;3.10;68.55
76126;BME280;65174;48.138;21.002;2023-02-26T03:21:55;98148.38;;;3.25;68.98
76126;BME280;65174;48.138;21.002;2023-02-26T03:25:52;98142.59;;;3.21;68.67
76126;BME280;65174;48.138;21.002;2023-02-26T03:29:19;98149.59;;;3.02;69.88
76126;BME280;65174;48.138;21.002;2023-02-26T03:32:32;98152.88;;;3.04;70.10
76126;BME280;65174;48.138;21.002;2023-02-26T03:39:33;98165.56;;;2.90;70.70
76126;BME280;65174;48.138;21.002;2023-02-26T03:42:45;98167.69;;;2.82;70.88
76126;BME280;65174;48.138;21.002;2023-02-26T03:45:51;98176.00;;;3.01;70.65
76126;BME280;65174;48.138;21.002;2023-02-26T03:48:58;98179.09;;;3.06;69.77
76126;BME280;65174;48.138;21.002;2023-02-26T03:52:05;98184.03;;;2.93;70.92
76126;BME280;65174;48.138;21.002;2023-02-26T03:55:51;98192.66;;;3.06;70.76
76126;BME280;65174;48.138;21.002;2023-02-26T03:58:57;98189.28;;;3.06;70.52
76126;BME280;65174;48.138;21.002;2023-02-26T04:02:54;98200.72;;;2.99;70.77
76126;BME280;65174;48.138;21.002;2023-02-26T04:05:58;98199.97;;;3.12;70.24
76126;BME280;65174;48.138;21.002;2023-02-26T04:09:00;98205.00;;;2.98;70.71
76126;BME280;65174;48.138;21.002;2023-02-26T04:12:04;98200.63;;;3.00;69.99
76126;BME280;65174;48.138;21.002;2023-02-26T04:15:07;98200.22;;;3.08;70.09
76126;BME280;65174;48.138;21.002;2023-02-26T04:18:10;98190.84;;;3.08;70.42
76126;BME280;65174;48.138;21.002;2023-02-26T04:21:16;98199.66;;;3.18;70.18
76126;BME280;65174;48.138;21.002;2023-02-26T04:24:21;98201.88;;;3.25;69.72
76126;BME280;65174;48.138;21.002;2023-02-26T04:27:23;98203.44;;;3.27;69.84
76126;BME280;65174;48.138;21.002;2023-02-26T04:30:25;98218.72;;;3.27;69.50
76126;BME280;65174;48.138;21.002;2023-02-26T04:33:28;98225.47;;;3.28;69.40
76126;BME280;65174;48.138;21.002;2023-02-26T04:36:30;98225.03;;;3.36;69.09
76126;BME280;65174;48.138;21.002;2023-02-26T04:39:32;98235.00;;;3.40;68.73
76126;BME280;65174;48.138;21.002;2023-02-26T04:42:35;98229.00;;;3.41;68.68
76126;BME280;65174;48.138;21.002;2023-02-26T04:45:37;98238.03;;;3.47;68.19
76126;BME280;65174;48.138;21.002;2023-02-26T04:48:39;98251.69;;;3.46;68.19
76126;BME280;65174;48.138;21.002;2023-02-26T04:51:41;98258.09;;;3.53;67.97
76126;BME280;65174;48.138;21.002;2023-02-26T04:54:45;98254.56;;;3.55;68.87
76126;BME280;65174;48.138;21.002;2023-02-26T04:57:49;98241.16;;;3.52;69.07
76126;BME280;65174;48.138;21.002;2023-02-26T05:00:56;98235.09;;;3.39;69.68
76126;BME280;65174;48.138;21.002;2023-02-26T05:03:58;98223.06;;;3.25;69.13
76126;BME280;65174;48.138;21.002;2023-02-26T05:07:00;98220.84;;;3.19;69.59
76126;BME280;65174;48.138;21.002;2023-02-26T05:10:04;98214.78;;;3.21;68.86
76126;BME280;65174;48.138;21.002;2023-02-26T05:13:07;98217.00;;;3.28;68.70
76126;BME280;65174;48.138;21.002;2023-02-26T05:16:09;98226.13;;;3.16;68.45
76126;BME280;65174;48.138;21.002;2023-02-26T05:19:12;98242.41;;;3.13;68.22
76126;BME280;65174;48.138;21.002;2023-02-26T05:22:14;98258.94;;;3.22;67.39
76126;BME280;65174;48.138;21.002;2023-02-26T05:25:16;98280.16;;;3.54;66.67
76126;BME280;65174;48.138;21.002;2023-02-26T05:28:19;98284.81;;;3.61;66.17
76126;BME280;65174;48.138;21.002;2023-02-26T05:31:21;98292.56;;;3.60;66.25
76126;BME280;65174;48.138;21.002;2023-02-26T05:34:23;98307.44;;;3.67;65.84
76126;BME280;65174;48.138;21.002;2023-02-26T05:37:25;98306.75;;;3.79;65.27
76126;BME280;65174;48.138;21.002;2023-02-26T05:40:27;98302.09;;;3.87;66.02
76126;BME280;65174;48.138;21.002;2023-02-26T05:43:29;98316.38;;;3.90;66.60
76126;BME280;65174;48.138;21.002;2023-02-26T05:46:31;98324.63;;;3.95;65.15
76126;BME280;65174;48.138;21.002;2023-02-26T05:49:33;98326.97;;;3.98;65.29
76126;BME280;65174;48.138;21.002;2023-02-26T05:52:35;98318.69;;;3.94;65.95
76126;BME280;65174;48.138;21.002;2023-02-26T05:55:37;98336.13;;;4.02;66.17
76126;BME280;65174;48.138;21.002;2023-02-26T05:58:39;98336.53;;;4.10;65.68
76126;BME280;65174;48.138;21.002;2023-02-26T06:01:42;98337.66;;;3.75;65.08
76126;BME280;65174;48.138;21.002;2023-02-26T06:04:44;98353.91;;;3.88;65.17
76126;BME280;65174;48.138;21.002;2023-02-26T06:07:46;98356.56;;;3.86;65.86
76126;BME280;65174;48.138;21.002;2023-02-26T06:10:50;98350.47;;;3.73;65.09
76126;BME280;65174;48.138;21.002;2023-02-26T06:13:52;98351.44;;;3.71;66.43
76126;BME280;65174;48.138;21.002;2023-02-26T06:16:54;98337.31;;;3.50;64.57
76126;BME280;65174;48.138;21.002;2023-02-26T06:19:56;98363.22;;;3.58;63.13
76126;BME280;65174;48.138;21.002;2023-02-26T06:22:58;98367.66;;;3.85;62.31
76126;BME280;65174;48.138;21.002;2023-02-26T06:26:00;98382.38;;;4.12;62.33
76126;BME280;65174;48.138;21.002;2023-02-26T06:29:03;98391.75;;;4.27;61.27
76126;BME280;65174;48.138;21.002;2023-02-26T06:32:05;98400.50;;;4.23;62.93
76126;BME280;65174;48.138;21.002;2023-02-26T06:35:07;98402.16;;;4.08;64.04
76126;BME280;65174;48.138;21.002;2023-02-26T06:38:10;98405.16;;;3.83;64.98
76126;BME280;65174;48.138;21.002;2023-02-26T07:03:12;98482.16;;;4.38;66.29
76126;BME280;65174;48.138;21.002;2023-02-26T07:35:17;98504.75;;;3.32;74.44
76126;BME280;65174;48.138;21.002;2023-02-26T07:54:41;98525.34;;;3.62;74.99
76126;BME280;65174;48.138;21.002;2023-02-26T07:57:43;98523.38;;;3.67;74.87
76126;BME280;65174;48.138;21.002;2023-02-26T08:00:46;98516.03;;;3.61;74.18
76126;BME280;65174;48.138;21.002;2023-02-26T08:03:48;98516.25;;;3.73;74.70
76126;BME280;65174;48.138;21.002;2023-02-26T08:06:50;98522.41;;;3.69;74.81
76126;BME280;65174;48.138;21.002;2023-02-26T08:09:52;98528.66;;;3.64;74.67
76126;BME280;65174;48.138;21.002;2023-02-26T08:12:57;98529.19;;;3.36;76.18
76126;BME280;65174;48.138;21.002;2023-02-26T08:15:59;98529.00;;;3.56;76.27
76126;BME280;65174;48.138;21.002;2023-02-26T08:19:02;98524.97;;;3.52;76.24
76126;BME280;65174;48.138;21.002;2023-02-26T08:22:04;98528.81;;;3.44;75.49
76126;BME280;65174;48.138;21.002;2023-02-26T08:25:07;98525.59;;;3.06;75.96
76126;BME280;65174;48.138;21.002;2023-02-26T08:28:09;98519.00;;;3.19;77.30
76126;BME280;65174;48.138;21.002;2023-02-26T08:31:12;98522.81;;;3.10;76.57
76126;BME280;65174;48.138;21.002;2023-02-26T08:34:14;98514.34;;;3.44;74.94
76126;BME280;65174;48.138;21.002;2023-02-26T08:37:16;98526.75;;;3.67;74.94
76126;BME280;65174;48.138;21.002;2023-02-26T08:40:19;98547.06;;;3.69;73.27
76126;BME280;65174;48.138;21.002;2023-02-26T08:43:22;98551.09;;;3.90;70.61
76126;BME280;65174;48.138;21.002;2023-02-26T08:46:24;98540.47;;;3.82;71.39
76126;BME280;65174;48.138;21.002;2023-02-26T08:49:27;98541.00;;;3.71;72.40
76126;BME280;65174;48.138;21.002;2023-02-26T08:52:29;98572.44;;;4.04;72.19
76126;BME280;65174;48.138;21.002;2023-02-26T08:55:31;98570.91;;;4.02;69.55
76126;BME280;65174;48.138;21.002;2023-02-26T08:58:33;98574.03;;;4.07;68.87
76126;BME280;65174;48.138;21.002;2023-02-26T09:01:35;98570.94;;;3.85;66.28
76126;BME280;65174;48.138;21.002;2023-02-26T09:04:37;98562.41;;;4.01;67.63
76126;BME280;65174;48.138;21.002;2023-02-26T09:07:40;98559.72;;;4.20;68.45
76126;BME280;65174;48.138;21.002;2023-02-26T09:10:42;98560.09;;;3.97;68.86
76126;BME280;65174;48.138;21.002;2023-02-26T09:13:44;98581.16;;;4.33;66.18
76126;BME280;65174;48.138;21.002;2023-02-26T09:16:46;98577.19;;;4.28;66.59
76126;BME280;65174;48.138;21.002;2023-02-26T09:19:51;98582.78;;;4.19;65.11
76126;BME280;65174;48.138;21.002;2023-02-26T09:22:53;98579.59;;;4.31;65.27
76126;BME280;65174;48.138;21.002;2023-02-26T09:26:27;98599.22;;;4.46;64.32
76126;BME280;65174;48.138;21.002;2023-02-26T09:29:29;98600.72;;;4.17;65.91
76126;BME280;65174;48.138;21.002;2023-02-26T09:32:32;98591.34;;;4.18;64.40
76126;BME280;65174;48.138;21.002;2023-02-26T09:35:34;98583.28;;;4.25;63.81
76126;BME280;65174;48.138;21.002;2023-02-26T09:38:36;98584.34;;;4.21;63.26
76126;BME280;65174;48.138;21.002;2023-02-26T09:41:49;98585.47;;;4.64;62.63
76126;BME280;65174;48.138;21.002;2023-02-26T09:44:53;98589.75;;;4.48;61.20
76126;BME280;65174;48.138;21.002;2023-02-26T09:48:03;98594.81;;;4.32;62.00
76126;BME280;65174;48.138;21.002;2023-02-26T09:51:09;98584.97;;;4.42;62.92
76126;BME280;65174;48.138;21.002;2023-02-26T09:54:21;98593.88;;;4.18;62.61
76126;BME280;65174;48.138;21.002;2023-02-26T10:00:52;98602.09;;;4.40;60.84
76126;BME280;65174;48.138;21.002;2023-02-26T10:04:06;98617.72;;;4.34;60.57
76126;BME280;65174;48.138;21.002;2023-02-26T10:11:10;98610.97;;;4.48;59.15
76126;BME280;65174;48.138;21.002;2023-02-26T10:23:51;98656.19;;;4.46;59.22
76126;BME280;65174;48.138;21.002;2023-02-26T10:27:03;98657.63;;;4.67;60.09
76126;BME280;65174;48.138;21.002;2023-02-26T10:30:24;98663.09;;;5.08;59.34
76126;BME280;65174;48.138;21.002;2023-02-26T10:37:03;98664.09;;;5.06;58.55
76126;BME280;65174;48.138;21.002;2023-02-26T10:43:51;98673.66;;;4.71;58.31
76126;BME280;65174;48.138;21.002;2023-02-26T10:50:27;98660.66;;;5.07;58.10
76126;BME280;65174;48.138;21.002;2023-02-26T10:53:30;98641.41;;;4.84;58.61
76126;BME280;65174;48.138;21.002;2023-02-26T10:56:33;98644.63;;;5.03;58.77
76126;BME280;65174;48.138;21.002;2023-02-26T10:59:35;98651.13;;;4.62;58.10
76126;BME280;65174;48.138;21.002;2023-02-26T11:02:39;98643.88;;;4.70;58.76
76126;BME280;65174;48.138;21.002;2023-02-26T11:05:42;98647.88;;;5.07;58.37
76126;BME280;65174;48.138;21.002;2023-02-26T11:08:48;98645.44;;;4.57;59.52
76126;BME280;65174;48.138;21.002;2023-02-26T11:11:54;98647.19;;;5.03;60.48
76126;BME280;65174;48.138;21.002;2023-02-26T11:14:56;98672.34;;;5.11;60.20
76126;BME280;65174;48.138;21.002;2023-02-26T11:17:58;98680.38;;;4.56;59.28
76126;BME280;65174;48.138;21.002;2023-02-26T11:21:03;98686.50;;;5.01;60.33
76126;BME280;65174;48.138;21.002;2023-02-26T11:24:12;98678.59;;;4.90;57.18
76126;BME280;65174;48.138;21.002;2023-02-26T11:27:23;98675.97;;;5.07;55.83
76126;BME280;65174;48.138;21.002;2023-02-26T11:30:29;98680.06;;;5.40;57.36
76126;BME280;65174;48.138;21.002;2023-02-26T11:36:40;98690.97;;;4.81;54.40
76126;BME280;65174;48.138;21.002;2023-02-26T11:39:43;98694.91;;;4.87;53.56
76126;BME280;65174;48.138;21.002;2023-02-26T11:42:52;98710.41;;;4.84;53.47
76126;BME280;65174;48.138;21.002;2023-02-26T11:45:59;98708.72;;;4.67;54.27
76126;BME280;65174;48.138;21.002;2023-02-26T11:49:02;98726.41;;;4.55;52.63
76126;BME280;65174;48.138;21.002;2023-02-26T11:55:20;98707.00;;;4.68;52.96
76126;BME280;65174;48.138;21.002;2023-02-26T11:58:23;98716.25;;;4.70;54.47
76126;BME280;65174;48.138;21.002;2023-02-26T12:01:27;98701.59;;;4.41;53.68
76126;BME280;65174;48.138;21.002;2023-02-26T12:04:30;98715.75;;;4.14;53.67
76126;BME280;65174;48.138;21.002;2023-02-26T12:07:32;98738.59;;;4.67;53.58
76126;BME280;65174;48.138;21.002;2023-02-26T12:10:50;98734.88;;;4.40;53.78
76126;BME280;65174;48.138;21.002;2023-02-26T12:32:00;98734.69;;;4.43;52.26
76126;BME280;65174;48.138;21.002;2023-02-26T12:48:46;98762.13;;;4.05;52.38
76126;BME280;65174;48.138;21.002;2023-02-26T12:55:08;98765.44;;;4.24;52.90
76126;BME280;65174;48.138;21.002;2023-02-26T12:58:37;98778.84;;;4.11;52.64
76126;BME280;65174;48.138;21.002;2023-02-26T13:11:53;98762.34;;;4.35;53.17
76126;BME280;65174;48.138;21.002;2023-02-26T13:18:28;98783.97;;;3.93;52.74
76126;BME280;65174;48.138;21.002;2023-02-26T13:21:39;98795.38;;;4.03;53.43
76126;BME280;65174;48.138;21.002;2023-02-26T13:27:49;98788.38;;;4.07;51.96
76126;BME280;65174;48.138;21.002;2023-02-26T13:30:54;98794.91;;;3.95;52.96
76126;BME280;65174;48.138;21.002;2023-02-26T13:34:01;98800.19;;;4.10;52.65
76126;BME280;65174;48.138;21.002;2023-02-26T13:37:14;98798.94;;;3.82;53.35
76126;BME280;65174;48.138;21.002;2023-02-26T13:40:40;98822.69;;;4.01;52.50
76126;BME280;65174;48.138;21.002;2023-02-26T13:47:17;98826.00;;;4.03;51.37
76126;BME280;65174;48.138;21.002;2023-02-26T13:56:53;98821.28;;;3.77;53.03
76126;BME280;65174;48.138;21.002;2023-02-26T14:00:27;98838.09;;;3.81;52.75
76126;BME280;65174;48.138;21.002;2023-02-26T14:03:43;98829.63;;;3.81;53.50
76126;BME280;65174;48.138;21.002;2023-02-26T14:06:59;98835.03;;;3.75;52.75
76126;BME280;65174;48.138;21.002;2023-02-26T14:10:45;98839.78;;;3.64;54.87
76126;BME280;65174;48.138;21.002;2023-02-26T14:20:21;98847.13;;;3.88;53.91
76126;BME280;65174;48.138;21.002;2023-02-26T14:23:34;98861.34;;;3.75;54.03
76126;BME280;65174;48.138;21.002;2023-02-26T14:26:37;98850.94;;;3.80;50.97
76126;BME280;65174;48.138;21.002;2023-02-26T14:36:10;98874.84;;;3.77;49.92
76126;BME280;65174;48.138;21.002;2023-02-26T14:39:26;98874.25;;;3.54;51.21
76126;BME280;65174;48.138;21.002;2023-02-26T14:45:38;98873.50;;;3.52;51.88
76126;BME280;65174;48.138;21.002;2023-02-26T14:48:42;98878.59;;;3.70;51.71
76126;BME280;65174;48.138;21.002;2023-02-26T14:52:02;98875.00;;;3.37;52.02
76126;BME280;65174;48.138;21.002;2023-02-26T15:05:02;98897.50;;;3.28;52.21
76126;BME280;65174;48.138;21.002;2023-02-26T15:24:48;98940.13;;;3.24;53.53
76126;BME280;65174;48.138;21.002;2023-02-26T15:27:50;98946.94;;;3.23;53.63
76126;BME280;65174;48.138;21.002;2023-02-26T15:30:53;98947.53;;;3.30;54.06
76126;BME280;65174;48.138;21.002;2023-02-26T15:33:57;98954.03;;;3.17;54.88
76126;BME280;65174;48.138;21.002;2023-02-26T15:36:59;98956.00;;;3.10;55.04
76126;BME280;65174;48.138;21.002;2023-02-26T15:40:05;98960.28;;;3.10;54.96
76126;BME280;65174;48.138;21.002;2023-02-26T15:43:09;98964.84;;;3.02;54.33
76126;BME280;65174;48.138;21.002;2023-02-26T15:46:15;98961.50;;;3.01;55.54
76126;BME280;65174;48.138;21.002;2023-02-26T15:49:24;98970.22;;;3.16;54.82
76126;BME280;65174;48.138;21.002;2023-02-26T15:52:30;98970.44;;;2.90;53.87
76126;BME280;65174;48.138;21.002;2023-02-26T15:55:39;98975.19;;;2.99;54.34
76126;BME280;65174;48.138;21.002;2023-02-26T16:02:01;98985.09;;;2.85;54.15
76126;BME280;65174;48.138;21.002;2023-02-26T16:05:04;98988.28;;;2.90;54.07
76126;BME280;65174;48.138;21.002;2023-02-26T16:08:09;98994.03;;;2.95;54.51
76126;BME280;65174;48.138;21.002;2023-02-26T16:11:15;98997.78;;;2.65;54.74
76126;BME280;65174;48.138;21.002;2023-02-26T16:14:23;98993.78;;;2.79;54.87
76126;BME280;65174;48.138;21.002;2023-02-26T16:17:33;99013.88;;;2.87;55.04
76126;BME280;65174;48.138;21.002;2023-02-26T16:20:56;99000.31;;;2.65;55.37
76126;BME280;65174;48.138;21.002;2023-02-26T16:24:01;99008.53;;;2.93;55.56
76126;BME280;65174;48.138;21.002;2023-02-26T16:27:06;99021.34;;;2.70;56.35
76126;BME280;65174;48.138;21.002;2023-02-26T16:30:16;99026.56;;;2.67;56.12
76126;BME280;65174;48.138;21.002;2023-02-26T16:33:21;99020.06;;;2.60;55.71
76126;BME280;65174;48.138;21.002;2023-02-26T16:36:30;99034.66;;;2.55;55.88
76126;BME280;65174;48.138;21.002;2023-02-26T16:39:33;99036.53;;;2.51;56.48
76126;BME280;65174;48.138;21.002;2023-02-26T16:45:47;99056.03;;;2.51;56.32
76126;BME280;65174;48.138;21.002;2023-02-26T16:48:53;99056.16;;;2.48;56.86
76126;BME280;65174;48.138;21.002;2023-02-26T16:51:57;99055.59;;;2.39;57.14
76126;BME280;65174;48.138;21.002;2023-02-26T16:55:03;99053.34;;;2.55;56.39
76126;BME280;65174;48.138;21.002;2023-02-26T16:58:10;99056.31;;;2.43;56.40
76126;BME280;65174;48.138;21.002;2023-02-26T17:01:16;99067.34;;;2.43;57.16
76126;BME280;65174;48.138;21.002;2023-02-26T17:04:23;99071.72;;;2.40;56.87
76126;BME280;65174;48.138;21.002;2023-02-26T17:07:30;99074.38;;;2.37;57.41
76126;BME280;65174;48.138;21.002;2023-02-26T17:10:38;99082.59;;;2.43;55.65
76126;BME280;65174;48.138;21.002;2023-02-26T17:13:40;99095.78;;;2.55;55.03
76126;BME280;65174;48.138;21.002;2023-02-26T17:16:43;99092.56;;;2.50;54.92
76126;BME280;65174;48.138;21.002;2023-02-26T17:19:45;99103.25;;;2.36;53.80
76126;BME280;65174;48.138;21.002;2023-02-26T17:22:48;99100.19;;;2.50;52.89
76126;BME280;65174;48.138;21.002;2023-02-26T17:25:52;99100.16;;;2.28;53.57
76126;BME280;65174;48.138;21.002;2023-02-26T17:28:57;99112.78;;;2.31;54.20
76126;BME280;65174;48.138;21.002;2023-02-26T17:31:59;99107.50;;;2.35;53.96
76126;BME280;65174;48.138;21.002;2023-02-26T17:35:01;99107.75;;;2.29;53.92
76126;BME280;65174;48.138;21.002;2023-02-26T17:38:04;99114.16;;;2.16;54.11
76126;BME280;65174;48.138;21.002;2023-02-26T17:41:08;99099.16;;;2.32;54.67
76126;BME280;65174;48.138;21.002;2023-02-26T17:44:10;99099.81;;;2.37;54.00
76126;BME280;65174;48.138;21.002;2023-02-26T17:47:24;99107.97;;;2.23;53.84
76126;BME280;65174;48.138;21.002;2023-02-26T17:50:51;99099.25;;;2.29;53.82
76126;BME280;65174;48.138;21.002;2023-02-26T17:53:53;99095.31;;;2.22;53.75
76126;BME280;65174;48.138;21.002;2023-02-26T17:56:55;99098.50;;;2.27;53.27
76126;BME280;65174;48.138;21.002;2023-02-26T17:59:58;99084.78;;;2.31;53.52
76126;BME280;65174;48.138;21.002;2023-02-26T18:03:00;99092.19;;;2.14;53.68
76126;BME280;65174;48.138;21.002;2023-02-26T18:06:04;99092.56;;;2.26;53.85
76126;BME280;65174;48.138;21.002;2023-02-26T18:09:06;99086.09;;;2.18;54.11
76126;BME280;65174;48.138;21.002;2023-02-26T18:12:18;99092.16;;;2.15;54.26
76126;BME280;65174;48.138;21.002;2023-02-26T18:15:20;99096.34;;;2.16;54.33
76126;BME280;65174;48.138;21.002;2023-02-26T18:18:24;99085.66;;;2.07;55.06
76126;BME280;65174;48.138;21.002;2023-02-26T18:21:26;99091.38;;;2.13;55.19
76126;BME280;65174;48.138;21.002;2023-02-26T18:24:30;99099.22;;;2.07;55.73
76126;BME280;65174;48.138;21.002;2023-02-26T18:27:33;99107.03;;;2.01;55.68
76126;BME280;65174;48.138;21.002;2023-02-26T18:30:35;99097.81;;;1.99;56.07
76126;BME280;65174;48.138;21.002;2023-02-26T18:33:41;99104.63;;;1.98;55.56
76126;BME280;65174;48.138;21.002;2023-02-26T18:36:45;99105.63;;;1.94;55.18
76126;BME280;65174;48.138;21.002;2023-02-26T18:39:50;99094.31;;;2.01;55.09
76126;BME280;65174;48.138;21.002;2023-02-26T18:43:21;99096.31;;;1.93;54.72
76126;BME280;65174;48.138;21.002;2023-02-26T18:46:23;99111.19;;;2.04;54.43
76126;BME280;65174;48.138;21.002;2023-02-26T18:49:26;99105.22;;;1.82;55.37
76126;BME280;65174;48.138;21.002;2023-02-26T18:52:29;99096.38;;;1.67;56.27
76126;BME280;65174;48.138;21.002;2023-02-26T18:55:31;99105.72;;;1.91;55.30
76126;BME280;65174;48.138;21.002;2023-02-26T18:58:33;99122.06;;;1.84;56.62
76126;BME280;65174;48.138;21.002;2023-02-26T19:01:36;99097.47;;;1.60;56.58
76126;BME280;65174;48.138;21.002;2023-02-26T19:04:40;99121.44;;;1.78;56.87
76126;BME280;65174;48.138;21.002;2023-02-26T19:07:43;99112.22;;;1.75;57.39
76126;BME280;65174;48.138;21.002;2023-02-26T19:10:45;99116.81;;;1.64;58.04
76126;BME280;65174;48.138;21.002;2023-02-26T19:13:48;99127.38;;;1.52;57.89
76126;BME280;65174;48.138;21.002;2023-02-26T19:16:51;99121.94;;;1.38;58.50
76126;BME280;65174;48.138;21.002;2023-02-26T19:19:54;99140.81;;;1.55;58.53
76126;BME280;65174;48.138;21.002;2023-02-26T19:22:56;99135.72;;;1.57;57.95
76126;BME280;65174;48.138;21.002;2023-02-26T19:25:58;99145.69;;;1.61;58.00
76126;BME280;65174;48.138;21.002;2023-02-26T19:29:02;99123.63;;;1.37;58.65
76126;BME280;65174;48.138;21.002;2023-02-26T19:32:06;99131.94;;;1.42;59.06
76126;BME280;65174;48.138;21.002;2023-02-26T19:35:09;99139.84;;;1.59;58.91
76126;BME280;65174;48.138;21.002;2023-02-26T19:38:11;99145.66;;;1.37;59.51
76126;BME280;65174;48.138;21.002;2023-02-26T19:41:15;99153.94;;;1.43;59.82
76126;BME280;65174;48.138;21.002;2023-02-26T19:44:22;99163.03;;;1.50;60.39
76126;BME280;65174;48.138;21.002;2023-02-26T19:47:24;99164.94;;;1.44;60.32
76126;BME280;65174;48.138;21.002;2023-02-26T19:50:27;99174.31;;;1.42;60.77
76126;BME280;65174;48.138;21.002;2023-02-26T19:53:29;99184.81;;;1.31;60.10
76126;BME280;65174;48.138;21.002;2023-02-26T19:56:32;99183.53;;;1.18;60.72
76126;BME280;65174;48.138;21.002;2023-02-26T19:59:34;99180.47;;;1.35;60.43
76126;BME280;65174;48.138;21.002;2023-02-26T20:02:38;99171.34;;;1.28;60.91
76126;BME280;65174;48.138;21.002;2023-02-26T20:05:40;99175.84;;;1.20;61.39
76126;BME280;65174;48.138;21.002;2023-02-26T20:08:43;99164.50;;;1.31;60.98
76126;BME280;65174;48.138;21.002;2023-02-26T20:11:45;99156.28;;;1.23;61.07
76126;BME280;65174;48.138;21.002;2023-02-26T20:14:48;99162.16;;;1.24;61.02
76126;BME280;65174;48.138;21.002;2023-02-26T20:17:50;99166.31;;;1.26;60.98
76126;BME280;65174;48.138;21.002;2023-02-26T20:20:53;99188.97;;;1.06;61.85
76126;BME280;65174;48.138;21.002;2023-02-26T20:23:55;99157.66;;;1.06;61.99
76126;BME280;65174;48.138;21.002;2023-02-26T20:26:59;99137.59;;;0.97;60.76
76126;BME280;65174;48.138;21.002;2023-02-26T20:30:03;99168.78;;;1.02;61.41
76126;BME280;65174;48.138;21.002;2023-02-26T20:33:05;99168.53;;;1.09;61.46
76126;BME280;65174;48.138;21.002;2023-02-26T20:36:08;99174.47;;;1.10;61.86
76126;BME280;65174;48.138;21.002;2023-02-26T20:39:11;99198.19;;;0.81;63.81